sensor_id;sensor_type;location;lat;lon;timestamp;pressure;altitude;pressure_sealevel;temperature;humidity
59009;BME280;44794;42.652;23.318;2022-11-10T06:03:51;95064.06;;;4.93;100.00
59009;BME280;44794;42.652;23.318;2022-11-10T06:06:16;95068.72;;;5.04;100.00
59009;BME280;44794;42.652;23.318;2022-11-10T06:08:42;95068.25;;;5.14;100.00
59009;BME280;44794;42.652;23.318;2022-11-10T06:11:08;95067.91;;;5.21;100.00
59009;BME280;44794;42.652;23.318;2022-11-10T06:13:33;95075.66;;;5.38;100.00
59009;BME280;44794;42.652;23.318;2022-11-10T06:15:59;95076.63;;;5.54;100.00
59009;BME280;44794;42.652;23.318;2022-11-10T06:18:24;95084.53;;;5.68;100.00
59009;BME280;44794;42.652;23.318;2022-11-10T06:20:50;95089.91;;;5.82;100.00
59009;BME280;44794;42.652;23.318;2022-11-10T06:23:15;95085.69;;;5.98;100.00
59009;BME280;44794;42.652;23.318;2022-11-10T06:25:41;95085.00;;;6.11;100.00
59009;BME280;44794;42.652;23.318;2022-11-10T06:28:08;95088.66;;;6.24;100.00
59009;BME280;44794;42.652;23.318;2022-11-10T06:30:36;95108.00;;;6.33;100.00
59009;BME280;44794;42.652;23.318;2022-11-10T06:33:02;95109.50;;;6.37;100.00
59009;BME280;44794;42.652;23.318;2022-11-10T06:35:28;95119.16;;;6.50;100.00
59009;BME280;44794;42.652;23.318;2022-11-10T06:38:07;95131.56;;;6.59;100.00
59009;BME280;44794;42.652;23.318;2022-11-10T06:40:33;95152.75;;;6.66;100.00
59009;BME280;44794;42.652;23.318;2022-11-10T06:43:00;95165.34;;;6.71;100.00
59009;BME280;44794;42.652;23.318;2022-11-10T06:45:26;95166.63;;;6.80;100.00
59009;BME280;44794;42.652;23.318;2022-11-10T06:48:08;95179.31;;;6.84;100.00
59009;BME280;44794;42.652;23.318;2022-11-10T06:50:35;95183.75;;;6.82;100.00
59009;BME280;44794;42.652;23.318;2022-11-10T06:53:01;95176.88;;;6.98;100.00
59009;BME280;44794;42.652;23.318;2022-11-10T06:55:27;95170.66;;;7.02;100.00
59009;BME280;44794;42.652;23.318;2022-11-10T06:57:53;95167.97;;;7.21;100.00
59009;BME280;44794;42.652;23.318;2022-11-10T07:00:19;95164.22;;;7.26;100.00
59009;BME280;44794;42.652;23.318;2022-11-10T07:02:45;95171.16;;;7.41;100.00
59009;BME280;44794;42.652;23.318;2022-11-10T07:05:10;95162.75;;;7.53;100.00
59009;BME280;44794;42.652;23.318;2022-11-10T07:07:36;95171.59;;;7.49;100.00
59009;BME280;44794;42.652;23.318;2022-11-10T07:10:01;95179.03;;;7.55;100.00
59009;BME280;44794;42.652;23.318;2022-11-10T07:12:27;95180.56;;;7.74;100.00
59009;BME280;44794;42.652;23.318;2022-11-10T07:14:53;95180.13;;;7.82;100.00
59009;BME280;44794;42.652;23.318;2022-11-10T07:17:19;95183.13;;;7.90;100.00
59009;BME280;44794;42.652;23.318;2022-11-10T07:19:45;95185.81;;;7.88;100.00
59009;BME280;44794;42.652;23.318;2022-11-10T07:22:10;95193.09;;;7.97;100.00
59009;BME280;44794;42.652;23.318;2022-11-10T07:24:35;95203.56;;;8.10;99.10
59009;BME280;44794;42.652;23.318;2022-11-10T07:27:01;95206.78;;;8.15;98.44
59009;BME280;44794;42.652;23.318;2022-11-10T07:29:26;95215.03;;;8.21;97.37
59009;BME280;44794;42.652;23.318;2022-11-10T07:31:52;95227.72;;;8.25;96.18
59009;BME280;44794;42.652;23.318;2022-11-10T07:34:18;95232.13;;;8.23;95.75
59009;BME280;44794;42.652;23.318;2022-11-10T07:36:43;95235.81;;;8.35;95.54
59009;BME280;44794;42.652;23.318;2022-11-10T07:39:10;95230.81;;;8.47;95.81
59009;BME280;44794;42.652;23.318;2022-11-10T07:41:36;95226.28;;;8.51;95.75
59009;BME280;44794;42.652;23.318;2022-11-10T07:44:01;95229.78;;;8.50;95.75
59009;BME280;44794;42.652;23.318;2022-11-10T07:46:27;95232.94;;;8.55;94.79
59009;BME280;44794;42.652;23.318;2022-11-10T07:48:52;95230.69;;;8.64;94.61
59009;BME280;44794;42.652;23.318;2022-11-10T07:51:18;95229.09;;;8.77;94.67
59009;BME280;44794;42.652;23.318;2022-11-10T07:53:44;95227.22;;;8.79;94.47
59009;BME280;44794;42.652;23.318;2022-11-10T07:56:09;95228.94;;;8.94;94.71
59009;BME280;44794;42.652;23.318;2022-11-10T07:58:35;95238.88;;;9.01;93.37
59009;BME280;44794;42.652;23.318;2022-11-10T08:01:00;95247.13;;;9.08;92.10
59009;BME280;44794;42.652;23.318;2022-11-10T08:03:26;95243.44;;;9.12;92.30
59009;BME280;44794;42.652;23.318;2022-11-10T08:05:51;95245.75;;;9.16;92.78
59009;BME280;44794;42.652;23.318;2022-11-10T08:08:17;95247.91;;;9.24;92.15
59009;BME280;44794;42.652;23.318;2022-11-10T08:10:43;95249.59;;;9.39;91.62
59009;BME280;44794;42.652;23.318;2022-11-10T08:13:10;95250.97;;;9.44;91.50
59009;BME280;44794;42.652;23.318;2022-11-10T08:15:36;95255.25;;;9.45;90.16
59009;BME280;44794;42.652;23.318;2022-11-10T08:18:12;95267.13;;;9.49;88.88
59009;BME280;44794;42.652;23.318;2022-11-10T08:20:39;95266.84;;;9.54;88.27
59009;BME280;44794;42.652;23.318;2022-11-10T08:23:05;95275.16;;;9.45;87.45
59009;BME280;44794;42.652;23.318;2022-11-10T08:25:33;95278.16;;;9.53;87.01
59009;BME280;44794;42.652;23.318;2022-11-10T08:28:00;95281.84;;;9.63;87.08
59009;BME280;44794;42.652;23.318;2022-11-10T08:30:27;95281.41;;;9.70;87.03
59009;BME280;44794;42.652;23.318;2022-11-10T08:32:55;95293.88;;;9.64;86.43
59009;BME280;44794;42.652;23.318;2022-11-10T08:35:22;95288.53;;;9.80;86.04
59009;BME280;44794;42.652;23.318;2022-11-10T08:37:48;95297.53;;;9.89;86.14
59009;BME280;44794;42.652;23.318;2022-11-10T08:40:14;95294.13;;;9.88;85.31
59009;BME280;44794;42.652;23.318;2022-11-10T08:42:39;95292.47;;;10.01;84.93
59009;BME280;44794;42.652;23.318;2022-11-10T08:45:05;95288.31;;;10.13;84.94
59009;BME280;44794;42.652;23.318;2022-11-10T08:47:31;95301.00;;;10.17;83.47
59009;BME280;44794;42.652;23.318;2022-11-10T08:49:56;95294.13;;;10.30;83.88
59009;BME280;44794;42.652;23.318;2022-11-10T08:52:22;95298.03;;;10.37;83.16
59009;BME280;44794;42.652;23.318;2022-11-10T08:54:47;95313.22;;;10.29;82.10
59009;BME280;44794;42.652;23.318;2022-11-10T08:57:13;95313.69;;;10.22;82.03
59009;BME280;44794;42.652;23.318;2022-11-10T08:59:38;95313.78;;;10.34;82.29
59009;BME280;44794;42.652;23.318;2022-11-10T09:02:03;95319.81;;;10.48;80.93
59009;BME280;44794;42.652;23.318;2022-11-10T09:04:29;95320.50;;;10.64;80.65
59009;BME280;44794;42.652;23.318;2022-11-10T09:06:54;95319.63;;;10.78;80.66
59009;BME280;44794;42.652;23.318;2022-11-10T09:09:23;95317.53;;;10.97;80.26
59009;BME280;44794;42.652;23.318;2022-11-10T09:11:50;95326.72;;;11.02;79.40
59009;BME280;44794;42.652;23.318;2022-11-10T09:14:15;95325.50;;;11.08;79.32
59009;BME280;44794;42.652;23.318;2022-11-10T09:16:41;95327.00;;;11.24;78.92
59009;BME280;44794;42.652;23.318;2022-11-10T09:19:06;95333.56;;;11.29;78.25
59009;BME280;44794;42.652;23.318;2022-11-10T09:21:32;95331.41;;;11.36;77.52
59009;BME280;44794;42.652;23.318;2022-11-10T09:23:57;95332.03;;;11.39;77.29
59009;BME280;44794;42.652;23.318;2022-11-10T09:26:22;95334.13;;;11.34;78.12
59009;BME280;44794;42.652;23.318;2022-11-10T09:28:48;95331.34;;;11.23;78.51
59009;BME280;44794;42.652;23.318;2022-11-10T09:31:14;95329.84;;;11.33;77.62
59009;BME280;44794;42.652;23.318;2022-11-10T09:33:39;95321.81;;;11.36;77.22
59009;BME280;44794;42.652;23.318;2022-11-10T09:36:05;95319.56;;;11.44;77.47
59009;BME280;44794;42.652;23.318;2022-11-10T09:38:31;95319.38;;;11.47;77.37
59009;BME280;44794;42.652;23.318;2022-11-10T09:41:06;95314.91;;;11.49;76.97
59009;BME280;44794;42.652;23.318;2022-11-10T09:43:55;95319.16;;;11.50;76.96
59009;BME280;44794;42.652;23.318;2022-11-10T09:46:26;95318.09;;;11.40;77.18
59009;BME280;44794;42.652;23.318;2022-11-10T09:49:11;95315.28;;;11.43;76.69
59009;BME280;44794;42.652;23.318;2022-11-10T09:51:41;95310.00;;;11.45;77.50
59009;BME280;44794;42.652;23.318;2022-11-10T09:54:40;95319.03;;;11.66;76.00
59009;BME280;44794;42.652;23.318;2022-11-10T09:57:11;95311.94;;;11.55;76.53
59009;BME280;44794;42.652;23.318;2022-11-10T09:59:37;95311.94;;;11.68;76.07
59009;BME280;44794;42.652;23.318;2022-11-10T10:02:38;95325.06;;;11.66;75.68
59009;BME280;44794;42.652;23.318;2022-11-10T10:05:20;95315.50;;;11.67;75.72
59009;BME280;44794;42.652;23.318;2022-11-10T10:08:01;95313.53;;;11.70;75.83
59009;BME280;44794;42.652;23.318;2022-11-10T10:10:46;95317.91;;;11.82;74.75
59009;BME280;44794;42.652;23.318;2022-11-10T10:19:48;95309.88;;;12.10;74.11
59009;BME280;44794;42.652;23.318;2022-11-10T10:24:44;95319.56;;;12.20;72.67
59009;BME280;44794;42.652;23.318;2022-11-10T10:27:17;95313.00;;;12.15;72.97
59009;BME280;44794;42.652;23.318;2022-11-10T10:29:46;95315.72;;;12.26;72.55
59009;BME280;44794;42.652;23.318;2022-11-10T10:32:14;95317.78;;;12.33;72.31
59009;BME280;44794;42.652;23.318;2022-11-10T10:34:41;95324.84;;;12.31;72.34
59009;BME280;44794;42.652;23.318;2022-11-10T10:39:45;95312.75;;;12.43;72.21
59009;BME280;44794;42.652;23.318;2022-11-10T10:42:36;95315.56;;;12.52;71.50
59009;BME280;44794;42.652;23.318;2022-11-10T10:45:21;95316.72;;;12.48;71.67
59009;BME280;44794;42.652;23.318;2022-11-10T10:47:50;95309.84;;;12.47;71.11
59009;BME280;44794;42.652;23.318;2022-11-10T10:55:35;95303.13;;;12.68;70.34
59009;BME280;44794;42.652;23.318;2022-11-10T10:59:02;95307.28;;;12.71;70.43
59009;BME280;44794;42.652;23.318;2022-11-10T11:03:42;95305.94;;;12.65;70.32
59009;BME280;44794;42.652;23.318;2022-11-10T11:08:59;95297.56;;;12.85;70.08
59009;BME280;44794;42.652;23.318;2022-11-10T11:11:30;95292.22;;;12.86;70.25
59009;BME280;44794;42.652;23.318;2022-11-10T11:14:22;95292.63;;;12.93;70.18
59009;BME280;44794;42.652;23.318;2022-11-10T11:17:12;95283.06;;;12.93;70.02
59009;BME280;44794;42.652;23.318;2022-11-10T11:19:38;95283.63;;;13.09;69.87
59009;BME280;44794;42.652;23.318;2022-11-10T11:25:04;95285.16;;;13.35;68.26
59009;BME280;44794;42.652;23.318;2022-11-10T11:30:13;95283.41;;;13.47;67.31
59009;BME280;44794;42.652;23.318;2022-11-10T11:43:45;95276.91;;;13.52;66.67
59009;BME280;44794;42.652;23.318;2022-11-10T11:58:01;95280.03;;;13.68;66.18
59009;BME280;44794;42.652;23.318;2022-11-10T12:00:48;95279.47;;;13.75;65.56
59009;BME280;44794;42.652;23.318;2022-11-10T12:09:00;95284.38;;;13.91;65.16
59009;BME280;44794;42.652;23.318;2022-11-10T12:20:00;95278.91;;;13.94;64.84
59009;BME280;44794;42.652;23.318;2022-11-10T12:28:07;95276.34;;;14.16;63.66
59009;BME280;44794;42.652;23.318;2022-11-10T12:30:34;95281.56;;;14.16;63.88
59009;BME280;44794;42.652;23.318;2022-11-10T12:33:12;95281.69;;;14.25;63.97
59009;BME280;44794;42.652;23.318;2022-11-10T12:35:42;95281.94;;;14.33;63.17
59009;BME280;44794;42.652;23.318;2022-11-10T12:38:13;95283.13;;;14.40;62.86
59009;BME280;44794;42.652;23.318;2022-11-10T12:40:51;95287.78;;;14.47;62.76
59009;BME280;44794;42.652;23.318;2022-11-10T12:43:30;95291.94;;;14.50;62.44
59009;BME280;44794;42.652;23.318;2022-11-10T12:46:02;95282.19;;;14.52;62.44
59009;BME280;44794;42.652;23.318;2022-11-10T12:49:21;95279.09;;;14.47;62.71
59009;BME280;44794;42.652;23.318;2022-11-10T12:54:24;95288.00;;;14.55;62.06
59009;BME280;44794;42.652;23.318;2022-11-10T12:56:55;95292.88;;;14.49;62.26
59009;BME280;44794;42.652;23.318;2022-11-10T12:59:33;95282.19;;;14.41;62.25
59009;BME280;44794;42.652;23.318;2022-11-10T13:02:14;95281.00;;;14.56;62.14
59009;BME280;44794;42.652;23.318;2022-11-10T13:04:42;95291.31;;;14.57;61.86
59009;BME280;44794;42.652;23.318;2022-11-10T13:07:09;95290.50;;;14.57;62.16
59009;BME280;44794;42.652;23.318;2022-11-10T13:09:40;95295.47;;;14.60;61.87
59009;BME280;44794;42.652;23.318;2022-11-10T13:14:34;95303.19;;;14.83;61.18
59009;BME280;44794;42.652;23.318;2022-11-10T13:17:00;95297.97;;;14.83;61.25
59009;BME280;44794;42.652;23.318;2022-11-10T13:24:27;95297.31;;;15.01;61.10
59009;BME280;44794;42.652;23.318;2022-11-10T13:26:59;95298.06;;;14.93;61.01
59009;BME280;44794;42.652;23.318;2022-11-10T13:34:36;95294.84;;;14.78;61.37
59009;BME280;44794;42.652;23.318;2022-11-10T13:37:27;95302.94;;;14.86;60.75
59009;BME280;44794;42.652;23.318;2022-11-10T13:39:47;95306.28;;;14.88;60.72
59009;BME280;44794;42.652;23.318;2022-11-10T13:42:19;95307.09;;;14.89;61.08
59009;BME280;44794;42.652;23.318;2022-11-10T13:44:48;95306.84;;;14.92;61.01
59009;BME280;44794;42.652;23.318;2022-11-10T13:55:51;95298.78;;;14.84;61.54
59009;BME280;44794;42.652;23.318;2022-11-10T13:58:27;95307.44;;;14.84;61.80
59009;BME280;44794;42.652;23.318;2022-11-10T14:06:11;95306.66;;;14.62;62.62
59009;BME280;44794;42.652;23.318;2022-11-10T14:08:41;95307.72;;;14.59;62.59
59009;BME280;44794;42.652;23.318;2022-11-10T14:11:15;95311.75;;;14.52;62.53
59009;BME280;44794;42.652;23.318;2022-11-10T14:13:58;95310.94;;;14.41;62.33
59009;BME280;44794;42.652;23.318;2022-11-10T14:16:27;95318.19;;;14.27;62.20
59009;BME280;44794;42.652;23.318;2022-11-10T14:21:54;95315.22;;;13.97;61.88
59009;BME280;44794;42.652;23.318;2022-11-10T14:24:35;95311.16;;;13.82;62.28
59009;BME280;44794;42.652;23.318;2022-11-10T14:27:10;95313.97;;;13.68;62.65
59009;BME280;44794;42.652;23.318;2022-11-10T14:29:38;95318.44;;;13.55;62.43
59009;BME280;44794;42.652;23.318;2022-11-10T14:32:30;95319.56;;;13.40;63.34
59009;BME280;44794;42.652;23.318;2022-11-10T14:34:56;95319.84;;;13.25;63.87
59009;BME280;44794;42.652;23.318;2022-11-10T14:37:24;95312.19;;;13.11;64.61
59009;BME280;44794;42.652;23.318;2022-11-10T14:39:56;95317.88;;;12.92;64.66
59009;BME280;44794;42.652;23.318;2022-11-10T14:42:25;95312.28;;;12.73;64.97
59009;BME280;44794;42.652;23.318;2022-11-10T14:47:38;95314.13;;;12.36;66.09
59009;BME280;44794;42.652;23.318;2022-11-10T14:52:39;95308.00;;;11.99;67.30
59009;BME280;44794;42.652;23.318;2022-11-10T14:55:15;95307.25;;;11.85;67.69
59009;BME280;44794;42.652;23.318;2022-11-10T14:57:49;95306.53;;;11.71;68.10
59009;BME280;44794;42.652;23.318;2022-11-10T15:00:23;95316.28;;;11.55;68.73
59009;BME280;44794;42.652;23.318;2022-11-10T15:02:54;95316.63;;;11.36;68.23
59009;BME280;44794;42.652;23.318;2022-11-10T15:05:20;95324.94;;;11.29;67.74
59009;BME280;44794;42.652;23.318;2022-11-10T15:07:47;95328.22;;;11.19;67.70
59009;BME280;44794;42.652;23.318;2022-11-10T15:10:50;95321.13;;;11.08;68.88
59009;BME280;44794;42.652;23.318;2022-11-10T15:15:52;95328.72;;;10.85;70.58
59009;BME280;44794;42.652;23.318;2022-11-10T15:18:26;95324.31;;;10.73;71.49
59009;BME280;44794;42.652;23.318;2022-11-10T15:21:01;95330.06;;;10.64;71.98
59009;BME280;44794;42.652;23.318;2022-11-10T15:23:37;95326.19;;;10.57;72.46
59009;BME280;44794;42.652;23.318;2022-11-10T15:26:04;95332.97;;;10.46;72.47
59009;BME280;44794;42.652;23.318;2022-11-10T15:28:34;95332.59;;;10.38;72.86
59009;BME280;44794;42.652;23.318;2022-11-10T15:31:02;95340.00;;;10.30;73.20
59009;BME280;44794;42.652;23.318;2022-11-10T15:33:33;95338.91;;;10.20;73.18
59009;BME280;44794;42.652;23.318;2022-11-10T15:36:33;95343.25;;;10.05;73.54
59009;BME280;44794;42.652;23.318;2022-11-10T15:41:42;95355.09;;;9.95;72.14
59009;BME280;44794;42.652;23.318;2022-11-10T15:44:24;95357.50;;;9.98;72.59
59009;BME280;44794;42.652;23.318;2022-11-10T15:46:52;95357.84;;;9.92;72.71
59009;BME280;44794;42.652;23.318;2022-11-10T15:49:36;95362.66;;;9.84;73.03
59009;BME280;44794;42.652;23.318;2022-11-10T15:52:04;95363.03;;;9.78;73.20
59009;BME280;44794;42.652;23.318;2022-11-10T15:54:35;95363.53;;;9.69;73.55
59009;BME280;44794;42.652;23.318;2022-11-10T15:57:01;95362.22;;;9.63;73.98
59009;BME280;44794;42.652;23.318;2022-11-10T15:59:27;95355.72;;;9.56;74.47
59009;BME280;44794;42.652;23.318;2022-11-10T16:01:52;95357.84;;;9.49;75.04
59009;BME280;44794;42.652;23.318;2022-11-10T16:04:18;95358.28;;;9.42;75.37
59009;BME280;44794;42.652;23.318;2022-11-10T16:06:44;95354.31;;;9.36;75.47
59009;BME280;44794;42.652;23.318;2022-11-10T16:09:11;95354.81;;;9.27;75.95
59009;BME280;44794;42.652;23.318;2022-11-10T16:11:41;95364.34;;;9.27;76.05
59009;BME280;44794;42.652;23.318;2022-11-10T16:14:12;95361.84;;;9.25;76.43
59009;BME280;44794;42.652;23.318;2022-11-10T16:16:39;95365.59;;;9.20;76.98
59009;BME280;44794;42.652;23.318;2022-11-10T16:19:05;95367.53;;;9.16;77.23
59009;BME280;44794;42.652;23.318;2022-11-10T16:21:31;95368.88;;;9.08;77.71
59009;BME280;44794;42.652;23.318;2022-11-10T16:23:56;95366.72;;;9.00;77.88
59009;BME280;44794;42.652;23.318;2022-11-10T16:26:23;95371.06;;;9.00;78.21
59009;BME280;44794;42.652;23.318;2022-11-10T16:28:50;95363.72;;;8.93;78.92
59009;BME280;44794;42.652;23.318;2022-11-10T16:31:17;95361.53;;;8.85;79.54
59009;BME280;44794;42.652;23.318;2022-11-10T16:33:44;95363.00;;;8.75;79.80
59009;BME280;44794;42.652;23.318;2022-11-10T16:36:34;95370.91;;;8.72;79.88
59009;BME280;44794;42.652;23.318;2022-11-10T16:39:10;95364.38;;;8.65;80.14
59009;BME280;44794;42.652;23.318;2022-11-10T16:41:35;95380.09;;;8.62;80.69
59009;BME280;44794;42.652;23.318;2022-11-10T16:44:00;95370.75;;;8.60;81.19
59009;BME280;44794;42.652;23.318;2022-11-10T16:46:28;95371.72;;;8.57;81.47
59009;BME280;44794;42.652;23.318;2022-11-10T16:48:56;95370.16;;;8.55;81.56
59009;BME280;44794;42.652;23.318;2022-11-10T16:51:48;95372.06;;;8.51;82.11
59009;BME280;44794;42.652;23.318;2022-11-10T16:54:14;95372.41;;;8.45;82.25
59009;BME280;44794;42.652;23.318;2022-11-10T16:56:40;95370.03;;;8.41;82.42
59009;BME280;44794;42.652;23.318;2022-11-10T16:59:06;95369.38;;;8.37;82.62
59009;BME280;44794;42.652;23.318;2022-11-10T17:01:33;95383.41;;;8.33;82.57
59009;BME280;44794;42.652;23.318;2022-11-10T17:04:03;95381.81;;;8.31;82.47
59009;BME280;44794;42.652;23.318;2022-11-10T17:06:29;95388.00;;;8.28;82.31
59009;BME280;44794;42.652;23.318;2022-11-10T17:08:58;95392.56;;;8.23;82.34
59009;BME280;44794;42.652;23.318;2022-11-10T17:11:25;95394.41;;;8.22;82.53
59009;BME280;44794;42.652;23.318;2022-11-10T17:13:51;95398.06;;;8.18;82.57
59009;BME280;44794;42.652;23.318;2022-11-10T17:16:30;95407.56;;;8.17;82.84
59009;BME280;44794;42.652;23.318;2022-11-10T17:18:59;95400.81;;;8.15;82.91
59009;BME280;44794;42.652;23.318;2022-11-10T17:21:27;95405.03;;;8.16;82.97
59009;BME280;44794;42.652;23.318;2022-11-10T17:23:54;95401.56;;;8.17;83.24
59009;BME280;44794;42.652;23.318;2022-11-10T17:26:20;95406.81;;;8.15;83.27
59009;BME280;44794;42.652;23.318;2022-11-10T17:28:46;95405.00;;;8.17;83.30
59009;BME280;44794;42.652;23.318;2022-11-10T17:31:11;95406.72;;;8.17;83.38
59009;BME280;44794;42.652;23.318;2022-11-10T17:33:38;95402.47;;;8.16;83.47
59009;BME280;44794;42.652;23.318;2022-11-10T17:36:05;95398.22;;;8.15;83.63
59009;BME280;44794;42.652;23.318;2022-11-10T17:38:36;95395.75;;;8.12;84.25
59009;BME280;44794;42.652;23.318;2022-11-10T17:41:01;95398.47;;;8.09;84.35
59009;BME280;44794;42.652;23.318;2022-11-10T17:43:27;95395.97;;;8.07;84.91
59009;BME280;44794;42.652;23.318;2022-11-10T17:45:52;95391.91;;;8.03;85.46
59009;BME280;44794;42.652;23.318;2022-11-10T17:48:17;95386.72;;;8.03;85.99
59009;BME280;44794;42.652;23.318;2022-11-10T17:50:43;95382.06;;;8.10;86.68
59009;BME280;44794;42.652;23.318;2022-11-10T17:55:45;95376.53;;;8.17;87.54
59009;BME280;44794;42.652;23.318;2022-11-10T17:58:12;95378.34;;;8.15;87.54
59009;BME280;44794;42.652;23.318;2022-11-10T18:00:37;95386.03;;;8.17;87.75
59009;BME280;44794;42.652;23.318;2022-11-10T18:03:03;95376.53;;;8.17;87.69
59009;BME280;44794;42.652;23.318;2022-11-10T18:05:33;95380.72;;;8.20;88.40
59009;BME280;44794;42.652;23.318;2022-11-10T18:07:59;95382.53;;;8.18;88.61
59009;BME280;44794;42.652;23.318;2022-11-10T18:10:25;95382.53;;;8.18;88.82
59009;BME280;44794;42.652;23.318;2022-11-10T18:12:50;95384.34;;;8.16;88.85
59009;BME280;44794;42.652;23.318;2022-11-10T18:15:16;95389.66;;;8.13;88.86
59009;BME280;44794;42.652;23.318;2022-11-10T18:17:42;95388.81;;;8.12;89.30
59009;BME280;44794;42.652;23.318;2022-11-10T18:20:08;95390.50;;;8.13;89.69
59009;BME280;44794;42.652;23.318;2022-11-10T18:22:34;95392.09;;;8.16;89.83
59009;BME280;44794;42.652;23.318;2022-11-10T18:24:59;95394.69;;;8.16;89.86
59009;BME280;44794;42.652;23.318;2022-11-10T18:27:25;95391.19;;;8.17;89.72
59009;BME280;44794;42.652;23.318;2022-11-10T18:29:52;95406.00;;;8.15;89.43
59009;BME280;44794;42.652;23.318;2022-11-10T18:32:17;95406.00;;;8.13;89.52
59009;BME280;44794;42.652;23.318;2022-11-10T18:34:43;95408.69;;;8.12;89.57
59009;BME280;44794;42.652;23.318;2022-11-10T18:37:08;95407.19;;;8.08;89.93
59009;BME280;44794;42.652;23.318;2022-11-10T18:39:33;95411.69;;;8.04;89.82
59009;BME280;44794;42.652;23.318;2022-11-10T18:41:59;95412.66;;;8.02;90.01
59009;BME280;44794;42.652;23.318;2022-11-10T18:44:25;95412.66;;;8.02;90.13
59009;BME280;44794;42.652;23.318;2022-11-10T18:46:50;95412.06;;;7.97;90.23
59009;BME280;44794;42.652;23.318;2022-11-10T18:49:16;95419.22;;;7.92;90.29
59009;BME280;44794;42.652;23.318;2022-11-10T18:51:42;95410.78;;;7.88;90.48
59009;BME280;44794;42.652;23.318;2022-11-10T18:54:08;95413.44;;;7.87;90.76
59009;BME280;44794;42.652;23.318;2022-11-10T18:56:34;95410.88;;;7.87;90.98
59009;BME280;44794;42.652;23.318;2022-11-10T18:58:59;95405.97;;;7.81;91.18
59009;BME280;44794;42.652;23.318;2022-11-10T19:01:25;95408.09;;;7.90;91.52
59009;BME280;44794;42.652;23.318;2022-11-10T19:03:51;95413.31;;;7.73;91.70
59009;BME280;44794;42.652;23.318;2022-11-10T19:06:17;95409.88;;;7.72;92.41
59009;BME280;44794;42.652;23.318;2022-11-10T19:08:43;95415.34;;;7.66;92.65
59009;BME280;44794;42.652;23.318;2022-11-10T19:11:11;95413.91;;;7.61;92.58
59009;BME280;44794;42.652;23.318;2022-11-10T19:13:37;95412.16;;;7.61;93.11
59009;BME280;44794;42.652;23.318;2022-11-10T19:16:04;95419.97;;;7.60;93.17
59009;BME280;44794;42.652;23.318;2022-11-10T19:18:30;95420.50;;;7.49;92.94
59009;BME280;44794;42.652;23.318;2022-11-10T19:20:55;95418.91;;;7.47;92.73
59009;BME280;44794;42.652;23.318;2022-11-10T19:23:21;95421.56;;;7.45;92.89
59009;BME280;44794;42.652;23.318;2022-11-10T19:25:46;95420.06;;;7.42;93.08
59009;BME280;44794;42.652;23.318;2022-11-10T19:28:12;95425.22;;;7.42;93.24
59009;BME280;44794;42.652;23.318;2022-11-10T19:30:38;95421.88;;;7.40;93.33
59009;BME280;44794;42.652;23.318;2022-11-10T19:33:03;95422.69;;;7.40;93.45
59009;BME280;44794;42.652;23.318;2022-11-10T19:35:29;95426.06;;;7.42;93.68
59009;BME280;44794;42.652;23.318;2022-11-10T19:37:55;95426.13;;;7.41;93.89
59009;BME280;44794;42.652;23.318;2022-11-10T19:40:21;95425.28;;;7.40;94.21
59009;BME280;44794;42.652;23.318;2022-11-10T19:42:47;95426.34;;;7.36;94.50
59009;BME280;44794;42.652;23.318;2022-11-10T19:45:12;95424.69;;;7.35;94.72
59009;BME280;44794;42.652;23.318;2022-11-10T19:47:40;95423.00;;;7.34;94.63
59009;BME280;44794;42.652;23.318;2022-11-10T19:50:06;95424.69;;;7.35;94.87
59009;BME280;44794;42.652;23.318;2022-11-10T19:52:31;95419.66;;;7.32;94.84
59009;BME280;44794;42.652;23.318;2022-11-10T19:54:57;95424.81;;;7.32;94.75
59009;BME280;44794;42.652;23.318;2022-11-10T19:57:22;95429.38;;;7.27;94.86
59009;BME280;44794;42.652;23.318;2022-11-10T19:59:48;95432.03;;;7.26;95.11
59009;BME280;44794;42.652;23.318;2022-11-10T20:02:13;95423.38;;;7.27;95.46
59009;BME280;44794;42.652;23.318;2022-11-10T20:04:39;95419.81;;;7.29;95.87
59009;BME280;44794;42.652;23.318;2022-11-10T20:07:24;95427.56;;;7.29;96.12
59009;BME280;44794;42.652;23.318;2022-11-10T20:10:09;95423.50;;;7.24;96.19
59009;BME280;44794;42.652;23.318;2022-11-10T20:12:34;95427.63;;;7.28;96.44
59009;BME280;44794;42.652;23.318;2022-11-10T20:15:00;95438.94;;;7.25;96.43
59009;BME280;44794;42.652;23.318;2022-11-10T20:17:25;95426.88;;;7.26;96.58
59009;BME280;44794;42.652;23.318;2022-11-10T20:19:51;95421.78;;;7.24;96.90
59009;BME280;44794;42.652;23.318;2022-11-10T20:22:19;95433.75;;;7.25;97.18
59009;BME280;44794;42.652;23.318;2022-11-10T20:24:45;95433.75;;;7.25;97.03
59009;BME280;44794;42.652;23.318;2022-11-10T20:27:10;95427.00;;;7.23;97.22
59009;BME280;44794;42.652;23.318;2022-11-10T20:29:36;95428.75;;;7.22;97.31
59009;BME280;44794;42.652;23.318;2022-11-10T20:32:02;95427.91;;;7.22;97.21
59009;BME280;44794;42.652;23.318;2022-11-10T20:34:27;95428.00;;;7.20;97.12
59009;BME280;44794;42.652;23.318;2022-11-10T20:36:54;95422.69;;;7.23;97.48
59009;BME280;44794;42.652;23.318;2022-11-10T20:39:20;95430.34;;;7.25;97.44
59009;BME280;44794;42.652;23.318;2022-11-10T20:41:52;95439.19;;;7.21;97.49
59009;BME280;44794;42.652;23.318;2022-11-10T20:44:18;95439.22;;;7.19;97.35
59009;BME280;44794;42.652;23.318;2022-11-10T20:46:44;95442.72;;;7.18;97.09
59009;BME280;44794;42.652;23.318;2022-11-10T20:49:09;95443.47;;;7.20;97.61
59009;BME280;44794;42.652;23.318;2022-11-10T20:51:34;95436.72;;;7.18;97.71
59009;BME280;44794;42.652;23.318;2022-11-10T20:54:00;95437.41;;;7.21;97.88
59009;BME280;44794;42.652;23.318;2022-11-10T20:56:26;95439.38;;;7.16;97.60
59009;BME280;44794;42.652;23.318;2022-11-10T20:58:51;95448.03;;;7.15;97.34
59009;BME280;44794;42.652;23.318;2022-11-10T21:01:18;95456.81;;;7.11;97.32
59009;BME280;44794;42.652;23.318;2022-11-10T21:03:44;95461.16;;;7.11;97.52